createdAt,value
2022-10-26T00:01:09.547Z,97557.19
2022-10-26T00:06:14.954Z,97559.19
2022-10-26T00:11:20.248Z,97556.81
2022-10-26T00:16:26.380Z,97551.66
2022-10-26T00:21:30.520Z,97556.28
2022-10-26T00:26:35.364Z,97553.53
2022-10-26T00:31:39.246Z,97555.13
2022-10-26T00:36:42.705Z,97560.97
2022-10-26T00:41:47.527Z,97549.69
2022-10-26T00:46:50.972Z,97555.97
2022-10-26T00:51:55.309Z,97557.28
2022-10-26T00:57:00.390Z,97556.34
2022-10-26T01:02:04.059Z,97551.09
2022-10-26T01:07:08.090Z,97548.09
2022-10-26T01:12:12.883Z,97541.69
2022-10-26T01:17:28.819Z,97542.63
2022-10-26T01:22:41.153Z,97539.34
2022-10-26T01:27:48.578Z,97534.09
2022-10-26T01:33:32.469Z,97531.66
2022-10-26T01:38:48.820Z,97530.34
2022-10-26T01:43:56.430Z,97524.69
2022-10-26T01:49:07.831Z,97519.63
2022-10-26T01:54:11.365Z,97521.91
2022-10-26T01:59:34.009Z,97517.88
2022-10-26T02:04:49.380Z,97506.03
2022-10-26T02:10:00.588Z,97508.84
2022-10-26T02:15:08.900Z,97508.09
2022-10-26T02:20:19.307Z,97508.84
2022-10-26T02:25:27.275Z,97497.50
2022-10-26T02:30:30.734Z,97500.03
2022-10-26T02:35:38.134Z,97496.84
2022-10-26T02:40:43.158Z,97506.13
2022-10-26T02:45:50.598Z,97495.69
2022-10-26T02:51:05.027Z,97495.22
2022-10-26T02:56:16.604Z,97482.47
2022-10-26T03:01:20.415Z,97483.88
2022-10-26T03:06:25.955Z,97491.22
2022-10-26T03:11:29.412Z,97477.94
2022-10-26T03:16:32.838Z,97483.44
2022-10-26T03:21:37.622Z,97482.75
2022-10-26T03:26:41.121Z,97482.94
2022-10-26T03:31:44.575Z,97476.53
2022-10-26T03:36:49.682Z,97469.41
2022-10-26T03:46:58.546Z,97474.72
2022-10-26T03:52:03.615Z,97466.78
2022-10-26T03:57:07.157Z,97469.28
2022-10-26T04:02:12.102Z,97466.56
2022-10-26T04:07:17.210Z,97472.38
2022-10-26T04:12:20.689Z,97463.00
2022-10-26T04:17:24.088Z,97470.72
2022-10-26T04:22:29.100Z,97460.81
2022-10-26T04:27:32.794Z,97468.72
2022-10-26T04:32:36.333Z,97465.91
2022-10-26T04:37:41.412Z,97462.50
2022-10-26T04:42:46.090Z,97463.25
2022-10-26T04:47:49.757Z,97460.94
2022-10-26T04:52:54.594Z,97456.81
2022-10-26T04:58:00.355Z,97454.78
2022-10-26T05:03:07.069Z,97459.53
2022-10-26T05:08:11.956Z,97454.56
2022-10-26T05:13:15.472Z,97461.13
2022-10-26T05:18:18.956Z,97448.22
2022-10-26T05:23:24.541Z,97444.84
2022-10-26T05:28:28.130Z,97454.31
2022-10-26T05:33:31.540Z,97451.81
2022-10-26T05:38:36.292Z,97451.63
2022-10-26T05:43:39.959Z,97441.34
2022-10-26T05:48:43.537Z,97447.06
2022-10-26T05:53:48.642Z,97453.50
2022-10-26T05:58:52.416Z,97454.97
2022-10-26T06:04:09.978Z,97447.84
2022-10-26T06:09:15.949Z,97452.16
2022-10-26T06:14:19.847Z,97453.94
2022-10-26T06:19:35.065Z,97463.59
2022-10-26T06:24:47.654Z,97459.78
2022-10-26T06:30:00.913Z,97458.63
2022-10-26T06:35:20.404Z,97459.75
2022-10-26T06:40:26.757Z,97456.91
2022-10-26T06:45:30.950Z,97454.03
2022-10-26T06:50:39.040Z,97457.91
2022-10-26T06:55:46.470Z,97464.78
2022-10-26T07:00:52.286Z,97478.34
2022-10-26T07:05:55.793Z,97470.19
2022-10-26T07:11:00.726Z,97472.00
2022-10-26T07:16:04.295Z,97471.41
2022-10-26T07:21:07.815Z,97482.94
2022-10-26T07:26:12.862Z,97482.75
2022-10-26T07:31:16.599Z,97483.84
2022-10-26T07:36:21.306Z,97490.03
2022-10-26T07:41:26.195Z,97497.41
2022-10-26T07:46:30.726Z,97497.25
2022-10-26T07:51:34.314Z,97500.44
2022-10-26T07:56:41.691Z,97489.31
2022-10-26T08:01:45.377Z,97489.75
2022-10-26T08:06:49.234Z,97490.53
2022-10-26T08:11:54.176Z,97493.91
2022-10-26T08:16:58.268Z,97499.00
2022-10-26T08:22:01.996Z,97501.03
2022-10-26T08:27:07.880Z,97506.53
2022-10-26T08:32:11.516Z,97515.09
2022-10-26T08:37:15.002Z,97520.47
2022-10-26T08:42:25.192Z,97519.53
2022-10-26T08:47:32.172Z,97513.00
2022-10-26T08:52:41.808Z,97517.19
2022-10-26T08:57:49.686Z,97526.59
2022-10-26T09:02:54.447Z,97534.44
2022-10-26T09:08:07.391Z,97549.81
2022-10-26T09:13:24.674Z,97549.81
2022-10-26T09:18:39.175Z,97558.09
2022-10-26T09:24:07.270Z,97555.75
2022-10-26T09:29:15.260Z,97565.38
2022-10-26T09:34:29.453Z,97561.78
2022-10-26T09:39:41.256Z,97559.69
2022-10-26T09:44:55.012Z,97570.44
2022-10-26T09:50:06.735Z,97576.75
2022-10-26T09:55:12.627Z,97573.53
2022-10-26T10:00:19.896Z,97588.94
2022-10-26T10:11:01.645Z,97584.91
2022-10-26T10:16:11.698Z,97577.44
2022-10-26T10:21:15.180Z,97577.56
2022-10-26T10:26:18.625Z,97568.28
2022-10-26T10:31:27.988Z,97572.44
2022-10-26T10:36:32.399Z,97570.44
2022-10-26T10:41:37.419Z,97559.69
2022-10-26T10:46:42.308Z,97559.56
2022-10-26T10:51:46.186Z,97561.00
2022-10-26T10:56:53.617Z,97568.19
2022-10-26T11:02:24.322Z,97565.00
2022-10-26T11:07:29.518Z,97579.97
2022-10-26T11:12:37.565Z,97580.41
2022-10-26T11:17:53.196Z,97570.47
2022-10-26T11:23:06.119Z,97567.75
2022-10-26T11:28:17.614Z,97575.22
2022-10-26T11:33:28.958Z,97577.94
2022-10-26T11:38:46.275Z,97583.38
2022-10-26T11:44:06.861Z,97569.53
2022-10-26T11:49:20.071Z,97569.31
2022-10-26T11:54:31.255Z,97552.25
2022-10-26T11:59:41.850Z,97555.13
2022-10-26T12:04:51.573Z,97549.63
2022-10-26T12:09:56.249Z,97543.59
2022-10-26T12:15:08.927Z,97561.50
2022-10-26T12:20:41.740Z,97568.88
2022-10-26T12:25:45.175Z,97579.28
2022-10-26T12:30:48.491Z,97593.66
2022-10-26T12:35:53.283Z,97600.84
2022-10-26T12:41:15.129Z,97601.69
2022-10-26T12:46:43.829Z,97606.38
2022-10-26T12:51:50.186Z,97615.91
2022-10-26T12:56:58.678Z,97615.72
2022-10-26T13:02:36.472Z,97616.22
2022-10-26T13:07:42.523Z,97623.09
2022-10-26T13:12:49.830Z,97612.19
2022-10-26T13:17:58.276Z,97633.13
2022-10-26T13:23:04.590Z,97634.31
2022-10-26T13:28:29.663Z,97639.56
2022-10-26T13:33:39.082Z,97631.56
2022-10-26T13:38:47.956Z,97642.28
2022-10-26T13:43:53.777Z,97630.84
2022-10-26T13:49:06.212Z,97623.94
2022-10-26T13:54:22.793Z,97636.78
2022-10-26T13:59:28.826Z,97631.91
2022-10-26T14:04:32.311Z,97632.50
2022-10-26T14:09:37.440Z,97650.75
2022-10-26T14:14:41.793Z,97651.28
2022-10-26T14:19:46.164Z,97663.09
2022-10-26T14:30:23.008Z,97670.16
2022-10-26T14:35:31.699Z,97672.34
2022-10-26T14:40:37.434Z,97669.19
2022-10-26T14:45:48.531Z,97671.03
2022-10-26T14:51:00.148Z,97679.09
2022-10-26T14:56:06.976Z,97688.09
2022-10-26T15:01:18.403Z,97687.72
2022-10-26T15:06:46.140Z,97689.56
2022-10-26T15:11:51.073Z,97691.53
2022-10-26T15:16:56.888Z,97695.84
2022-10-26T15:22:00.634Z,97706.63
2022-10-26T15:27:17.377Z,97717.06
2022-10-26T15:32:32.198Z,97708.53
2022-10-26T15:37:35.694Z,97711.44
2022-10-26T15:42:42.115Z,97721.69
2022-10-26T15:47:47.141Z,97717.38
2022-10-26T15:52:51.884Z,97721.16
2022-10-26T15:57:57.516Z,97725.22
2022-10-26T16:03:01.527Z,97733.28
2022-10-26T16:08:05.670Z,97745.56
2022-10-26T16:13:13.618Z,97740.84
2022-10-26T16:18:17.038Z,97760.53
2022-10-26T16:23:20.620Z,97774.28
2022-10-26T16:28:25.643Z,97774.53
2022-10-26T16:33:29.191Z,97786.00
2022-10-26T16:38:33.608Z,97798.34
2022-10-26T16:43:40.305Z,97798.78
2022-10-26T16:48:45.148Z,97801.47
2022-10-26T16:53:49.911Z,97810.97
2022-10-26T16:58:54.838Z,97813.31
2022-10-26T17:03:58.398Z,97813.19
2022-10-26T17:09:01.754Z,97822.78
2022-10-26T17:14:06.685Z,97830.34
2022-10-26T17:19:11.956Z,97841.44
2022-10-26T17:24:15.480Z,97847.53
2022-10-26T17:29:20.365Z,97855.88
2022-10-26T17:34:23.696Z,97869.38
2022-10-26T17:39:27.469Z,97887.25
2022-10-26T17:44:33.814Z,97899.28
2022-10-26T17:49:37.192Z,97902.72
2022-10-26T17:54:40.575Z,97912.84
2022-10-26T17:59:45.379Z,97900.84
2022-10-26T18:04:48.909Z,97909.88
2022-10-26T18:09:52.317Z,97927.53
2022-10-26T18:14:57.290Z,97916.47
2022-10-26T18:20:00.691Z,97929.31
2022-10-26T18:25:04.243Z,97951.34
2022-10-26T18:30:10.896Z,97956.53
2022-10-26T18:35:14.384Z,97960.25
2022-10-26T18:40:17.874Z,97963.97
2022-10-26T18:45:22.616Z,97960.00
2022-10-26T18:50:26.231Z,97967.34
2022-10-26T18:55:30.152Z,97967.81
2022-10-26T19:00:34.835Z,97972.41
2022-10-26T19:05:41.316Z,97970.00
2022-10-26T19:10:44.825Z,97975.06
2022-10-26T19:15:49.530Z,97984.16
2022-10-26T19:20:59.545Z,97987.88
2022-10-26T19:26:04.044Z,97990.28
2022-10-26T19:31:10.761Z,98003.19
2022-10-26T19:36:15.169Z,98012.53
2022-10-26T19:41:19.089Z,98012.03
2022-10-26T19:46:26.288Z,98027.59
2022-10-26T19:51:31.302Z,98038.13
2022-10-26T19:56:36.231Z,98038.69
2022-10-26T20:01:41.371Z,98043.38
2022-10-26T20:06:44.883Z,98044.13
2022-10-26T20:11:49.900Z,98053.38
2022-10-26T20:16:57.369Z,98057.41
2022-10-26T20:22:00.696Z,98066.22
2022-10-26T20:27:04.266Z,98064.88
2022-10-26T20:32:10.706Z,98071.03
2022-10-26T20:37:14.907Z,98078.56
2022-10-26T20:42:24.397Z,98082.28
2022-10-26T20:47:29.946Z,98090.47
2022-10-26T20:52:39.903Z,98083.47
2022-10-26T20:57:52.665Z,98091.22
2022-10-26T21:02:57.601Z,98098.75
2022-10-26T21:08:00.929Z,98105.19
2022-10-26T21:13:06.461Z,98104.69
2022-10-26T21:18:11.900Z,98112.28
2022-10-26T21:23:15.571Z,98106.00
2022-10-26T21:28:18.967Z,98107.34
2022-10-26T21:33:31.948Z,98103.13
2022-10-26T21:38:35.969Z,98122.16
2022-10-26T21:43:41.265Z,98122.22
2022-10-26T21:48:47.137Z,98129.63
2022-10-26T21:53:52.605Z,98130.75
2022-10-26T21:58:56.506Z,98137.47
2022-10-26T22:04:01.665Z,98142.41
2022-10-26T22:09:05.263Z,98143.72
2022-10-26T22:14:08.992Z,98147.38
2022-10-26T22:19:13.955Z,98147.81
2022-10-26T22:24:17.990Z,98146.03
2022-10-26T22:29:21.566Z,98143.78
2022-10-26T22:34:26.292Z,98146.56
2022-10-26T22:39:29.879Z,98152.47
2022-10-26T22:44:33.384Z,98150.78
2022-10-26T22:49:38.271Z,98151.94
2022-10-26T22:54:41.574Z,98156.91
2022-10-26T22:59:44.981Z,98159.88
2022-10-26T23:04:49.723Z,98158.88
2022-10-26T23:09:53.239Z,98159.25
2022-10-26T23:14:56.613Z,98156.41
2022-10-26T23:20:01.334Z,98166.22
2022-10-26T23:25:04.968Z,98164.28
2022-10-26T23:30:09.574Z,98166.81
2022-10-26T23:35:14.428Z,98186.94
2022-10-26T23:40:17.864Z,98188.94
2022-10-26T23:45:22.220Z,98187.91
2022-10-26T23:50:26.930Z,98184.28
2022-10-26T23:55:30.244Z,98193.97
